CYSN

St Catharines / Niagara District Airport

St Catharines, , Canada
TAF AMD CYSN 191531Z 1915/2002 07012G22KT 3/4SM -SN BLSN VV005 TEMPO 1915/1919 11/2SM -SN OVC012 BECMG 1920/1922 06018G28KT FM192300 06020G30KT 1/2SM -SN BLSN VV006 RMK NXT FCST BY 192000Z
Issued Valid From Valid To
Jan-19 @ 15:31 UTC
(an hour ago)
Jan-19 @ 15:00 UTC
(2 hours ago)
Jan-20 @ 02:00 UTC
(in 9 hours)
Jan-19 @ 15:00 to Jan-19 @ 20:00
TAF AMD CYSN 191531Z 1915/2002 07012G22KT 3/4SM -SN BLSN VV005
Wind Visibility Clouds Conditions
70° at 12 knots
 Gusting to 22 knots
3/4 miles
  • Vertical visibility at 500' AGL
  • Light Snow
  • Blowing
  • Snow
Temporary Jan-19 @ 15:00 to Jan-19 @ 19:00
TEMPO 1915/1919 11/2SM -SN OVC012
Visibility Clouds Conditions
1 1/2 miles
  • Overcast at 1,200' AGL
  • Light Snow
Becoming Jan-19 @ 20:00 to Jan-19 @ 23:00
BECMG 1920/1922 06018G28KT
Wind Visibility Clouds Conditions
60° at 18 knots
 Gusting to 28 knots
3/4 miles
  • Vertical visibility at 500' AGL
  • Light Snow
  • Blowing
  • Snow
From Jan-19 @ 23:00 to Jan-20 @ 02:00
FM192300 06020G30KT 1/2SM -SN BLSN VV006 RMK NXT FCST BY 192000Z
Wind Visibility Clouds Conditions
60° at 20 knots
 Gusting to 30 knots
1/2 miles
  • Vertical visibility at 600' AGL
  • Light Snow
  • Blowing
  • Snow
TAF AMD CYSN 191531Z 1915/2002 07012G22KT 3/4SM -SN BLSN VV005 TEMPO 1915/1919 11/2SM -SN OVC012 BECMG 1920/1922 06018G28KT FM192300 06020G30KT 1/2SM -SN BLSN VV006 RMK NXT FCST BY 192000Z
Issued Jan-19 @ 15:31 UTC
(an hour ago)
Valid From Jan-19 @ 15:00 UTC
(2 hours ago)
Valid To Jan-20 @ 02:00 UTC
(in 9 hours)
Jan-19 @ 15:00 - Jan-19 @ 20:00
Wind Visibility
70° at 12 knots
 Gusting to 22 knots
3/4 miles
Clouds
  • Vertical visibility at 500' AGL
Conditions
  • Light Snow
  • Blowing
  • Snow
Temporary Jan-19 @ 15:00 - Jan-19 @ 19:00
Clouds
  • Overcast at 1,200' AGL
Conditions
  • Light Snow
Becoming Jan-19 @ 20:00 - Jan-19 @ 23:00
Wind Visibility
60° at 18 knots
 Gusting to 28 knots
3/4 miles
Clouds
  • Vertical visibility at 500' AGL
Conditions
  • Light Snow
  • Blowing
  • Snow
From Jan-19 @ 23:00 - Jan-20 @ 02:00
Wind Visibility
60° at 20 knots
 Gusting to 30 knots
1/2 miles
Clouds
  • Vertical visibility at 600' AGL
Conditions
  • Light Snow
  • Blowing
  • Snow